createdAt,value
2019-03-17T00:03:37.321Z,8.06
2019-03-17T00:08:41.441Z,8.10
2019-03-17T00:13:46.113Z,8.05
2019-03-17T00:18:50.218Z,8.10
2019-03-17T00:23:54.373Z,8.08
2019-03-17T00:28:58.452Z,8.14
2019-03-17T00:34:02.814Z,8.07
2019-03-17T00:39:06.888Z,8.06
2019-03-17T00:44:11.287Z,8.26
2019-03-17T00:49:15.371Z,8.23
2019-03-17T00:54:20.084Z,8.21
2019-03-17T00:59:24.164Z,8.12
2019-03-17T01:04:28.273Z,8.08
2019-03-17T01:09:32.353Z,8.01
2019-03-17T01:14:36.481Z,8.05
2019-03-17T01:19:40.506Z,8.06
2019-03-17T01:24:44.615Z,7.95
2019-03-17T01:29:48.802Z,8.07
2019-03-17T01:34:54.072Z,8.11
2019-03-17T01:39:58.147Z,8.08
2019-03-17T01:45:02.222Z,8.16
2019-03-17T01:50:06.531Z,8.18
2019-03-17T01:55:10.684Z,8.28
2019-03-17T02:00:14.869Z,8.26
2019-03-17T02:05:22.368Z,8.43
2019-03-17T02:10:24.791Z,8.27
2019-03-17T02:15:28.928Z,8.34
2019-03-17T02:20:33.471Z,8.24
2019-03-17T02:25:37.825Z,8.24
2019-03-17T02:30:41.946Z,8.25
2019-03-17T02:35:46.023Z,8.42
2019-03-17T02:40:50.500Z,8.21
2019-03-17T02:45:54.603Z,8.29
2019-03-17T02:50:58.711Z,8.10
2019-03-17T02:56:02.766Z,8.27
2019-03-17T03:01:06.801Z,8.18
2019-03-17T03:06:10.902Z,8.17
2019-03-17T03:11:14.962Z,8.07
2019-03-17T03:16:19.369Z,8.16
2019-03-17T03:21:23.461Z,8.08
2019-03-17T03:26:27.609Z,7.98
2019-03-17T03:31:31.674Z,7.85
2019-03-17T03:36:35.682Z,8.06
2019-03-17T03:41:39.729Z,7.96
2019-03-17T03:46:43.757Z,7.97
2019-03-17T03:51:47.819Z,8.01
2019-03-17T03:56:51.948Z,7.93
2019-03-17T04:01:56.042Z,7.74
2019-03-17T04:07:00.104Z,7.70
2019-03-17T04:12:04.199Z,7.40
2019-03-17T04:17:08.248Z,7.31
2019-03-17T04:22:12.348Z,7.35
2019-03-17T04:27:16.402Z,7.35
2019-03-17T04:32:20.498Z,7.41
2019-03-17T04:37:25.234Z,7.39
2019-03-17T04:42:29.311Z,7.29
2019-03-17T04:47:33.358Z,7.39
2019-03-17T04:52:37.714Z,7.33
2019-03-17T04:57:42.136Z,7.42
2019-03-17T05:02:46.176Z,7.42
2019-03-17T05:07:50.506Z,7.52
2019-03-17T05:12:54.718Z,7.54
2019-03-17T05:17:58.838Z,7.54
2019-03-17T05:23:05.662Z,7.70
2019-03-17T05:28:08.619Z,7.88
2019-03-17T05:33:12.704Z,7.89
2019-03-17T05:38:16.965Z,7.97
2019-03-17T05:43:21.024Z,8.02
2019-03-17T05:48:25.079Z,8.08
2019-03-17T05:53:29.260Z,7.89
2019-03-17T05:58:33.560Z,7.79
2019-03-17T06:03:37.681Z,7.97
2019-03-17T06:08:42.463Z,7.99
2019-03-17T06:13:46.670Z,7.98
2019-03-17T06:18:50.856Z,8.00
2019-03-17T06:23:54.942Z,8.13
2019-03-17T06:28:59.094Z,8.31
2019-03-17T06:34:03.118Z,8.35
2019-03-17T06:39:07.430Z,8.32
2019-03-17T06:44:11.511Z,8.26
2019-03-17T06:49:15.603Z,8.36
2019-03-17T06:54:19.639Z,8.56
2019-03-17T06:59:23.774Z,8.90
2019-03-17T07:04:28.106Z,9.03
2019-03-17T07:09:32.139Z,9.00
2019-03-17T07:14:36.807Z,8.98
2019-03-17T07:19:40.888Z,9.04
2019-03-17T07:24:44.937Z,8.95
2019-03-17T07:29:49.586Z,8.86
2019-03-17T07:34:53.697Z,8.97
2019-03-17T07:39:57.759Z,9.15
2019-03-17T07:45:01.842Z,9.29
2019-03-17T07:50:07.353Z,9.39
2019-03-17T07:55:11.511Z,9.64
2019-03-17T08:00:30.869Z,9.86
2019-03-17T08:05:24.696Z,10.05
2019-03-17T08:10:28.931Z,10.19
2019-03-17T08:15:33.186Z,10.48
2019-03-17T08:20:37.268Z,10.68
2019-03-17T08:25:41.402Z,11.17
2019-03-17T08:30:53.039Z,11.64
2019-03-17T08:35:52.142Z,12.60
2019-03-17T08:40:56.221Z,12.96
2019-03-17T08:46:00.843Z,12.64
2019-03-17T08:51:05.883Z,12.31
2019-03-17T08:56:10.024Z,12.06
2019-03-17T09:01:14.478Z,12.05
2019-03-17T09:06:18.516Z,11.99
2019-03-17T09:11:22.636Z,12.24
2019-03-17T09:16:26.782Z,12.25
2019-03-17T09:21:30.898Z,12.46
2019-03-17T09:26:35.874Z,12.45
2019-03-17T09:31:40.133Z,12.67
2019-03-17T09:36:44.330Z,12.84
2019-03-17T09:41:48.353Z,13.10
2019-03-17T09:46:52.490Z,14.12
2019-03-17T09:51:56.585Z,14.07
2019-03-17T09:57:00.936Z,14.24
2019-03-17T10:02:05.121Z,13.72
2019-03-17T10:07:09.400Z,13.37
2019-03-17T10:12:13.770Z,13.29
2019-03-17T10:17:17.987Z,13.10
2019-03-17T10:22:22.375Z,12.76
2019-03-17T10:27:26.416Z,12.74
2019-03-17T10:32:30.490Z,12.47
2019-03-17T10:37:34.526Z,12.38
2019-03-17T10:42:38.669Z,12.43
2019-03-17T10:47:42.782Z,12.63
2019-03-17T10:52:47.085Z,13.27
2019-03-17T10:57:51.447Z,13.90
2019-03-17T11:02:55.568Z,14.07
2019-03-17T11:07:59.651Z,13.71
2019-03-17T11:13:03.781Z,12.98
2019-03-17T11:18:07.837Z,12.87
2019-03-17T11:23:11.873Z,13.23
2019-03-17T11:28:16.527Z,13.94
2019-03-17T11:33:20.624Z,13.65
2019-03-17T11:38:24.701Z,13.81
2019-03-17T11:43:29.105Z,13.45
2019-03-17T11:48:33.205Z,13.09
2019-03-17T11:53:37.385Z,12.91
2019-03-17T11:58:41.453Z,12.93
2019-03-17T12:03:45.764Z,12.67
2019-03-17T12:08:49.820Z,12.69
2019-03-17T12:13:53.970Z,12.96
2019-03-17T12:18:58.670Z,13.02
2019-03-17T12:24:02.955Z,12.76
2019-03-17T12:29:07.041Z,12.61
2019-03-17T12:34:11.438Z,12.27
2019-03-17T12:39:15.629Z,12.32
2019-03-17T12:44:19.775Z,12.53
2019-03-17T12:49:23.927Z,12.73
2019-03-17T12:54:45.593Z,12.47
2019-03-17T12:59:49.679Z,11.12
2019-03-17T13:04:53.774Z,8.90
2019-03-17T13:09:57.863Z,8.07
2019-03-17T13:15:01.893Z,7.77
2019-03-17T13:20:06.642Z,7.73
2019-03-17T13:25:11.499Z,7.70
2019-03-17T13:30:16.014Z,7.56
2019-03-17T13:35:20.128Z,7.51
2019-03-17T13:40:30.192Z,7.55
2019-03-17T13:45:34.939Z,7.54
2019-03-17T13:50:39.017Z,7.50
2019-03-17T13:55:44.023Z,7.66
2019-03-17T14:00:48.190Z,7.90
2019-03-17T14:05:52.247Z,7.99
2019-03-17T14:10:56.395Z,7.96
2019-03-17T14:16:00.461Z,8.05
2019-03-17T14:21:04.510Z,8.18
2019-03-17T14:26:08.613Z,8.16
2019-03-17T14:31:12.738Z,8.14
2019-03-17T14:36:16.756Z,8.13
2019-03-17T14:41:21.112Z,8.09
2019-03-17T14:46:25.237Z,7.99
2019-03-17T14:51:29.293Z,7.97
2019-03-17T14:56:33.403Z,7.98
2019-03-17T15:01:37.729Z,8.06
2019-03-17T15:06:41.900Z,8.26
2019-03-17T15:11:46.026Z,8.24
2019-03-17T15:16:50.105Z,8.28
2019-03-17T15:21:54.220Z,8.44
2019-03-17T15:26:58.333Z,8.57
2019-03-17T15:32:02.498Z,8.65
2019-03-17T15:37:06.574Z,8.59
2019-03-17T15:42:10.702Z,8.65
2019-03-17T15:47:14.891Z,8.62
2019-03-17T15:52:19.525Z,8.45
2019-03-17T15:57:23.840Z,8.36
2019-03-17T16:02:28.041Z,8.40
2019-03-17T16:07:41.873Z,8.35
2019-03-17T16:12:37.926Z,8.32
2019-03-17T16:17:42.064Z,8.19
2019-03-17T16:22:46.165Z,8.20
2019-03-17T16:27:50.296Z,8.11
2019-03-17T16:32:54.553Z,8.00
2019-03-17T16:37:58.572Z,7.97
2019-03-17T16:43:02.824Z,7.82
2019-03-17T16:48:06.894Z,7.79
2019-03-17T16:53:11.270Z,7.70
2019-03-17T16:58:15.815Z,7.63
2019-03-17T17:03:20.081Z,7.62
2019-03-17T17:08:24.294Z,7.70
2019-03-17T17:13:28.363Z,7.71
2019-03-17T17:18:32.494Z,7.52
2019-03-17T17:23:36.666Z,7.44
2019-03-17T17:28:40.926Z,7.43
2019-03-17T17:33:45.070Z,7.68
2019-03-17T17:38:49.166Z,7.79
2019-03-17T17:43:53.207Z,7.68
2019-03-17T17:48:57.264Z,7.30
2019-03-17T17:54:01.351Z,6.96
2019-03-17T17:59:05.413Z,6.70
2019-03-17T18:04:09.797Z,6.59
2019-03-17T18:09:15.155Z,6.41
2019-03-17T18:14:19.346Z,6.28
2019-03-17T18:19:23.535Z,6.31
2019-03-17T18:24:27.798Z,6.34
2019-03-17T18:29:31.847Z,6.14
2019-03-17T18:34:35.921Z,5.98
2019-03-17T18:39:40.248Z,5.74
2019-03-17T18:44:44.307Z,5.70
2019-03-17T18:49:48.393Z,5.64
2019-03-17T18:54:52.554Z,5.57
2019-03-17T18:59:56.702Z,5.36
2019-03-17T19:05:00.769Z,5.37
2019-03-17T19:10:05.148Z,5.28
2019-03-17T19:15:10.288Z,5.27
2019-03-17T19:20:14.669Z,5.28
2019-03-17T19:25:18.695Z,5.32
2019-03-17T19:30:22.944Z,5.14
2019-03-17T19:35:27.387Z,5.12
2019-03-17T19:40:32.652Z,5.02
2019-03-17T19:45:36.725Z,4.76
2019-03-17T19:50:40.885Z,4.72
2019-03-17T19:55:45.070Z,4.60
2019-03-17T20:00:49.128Z,4.63
2019-03-17T20:06:02.032Z,4.62
2019-03-17T20:11:09.052Z,4.53
2019-03-17T20:16:14.675Z,4.80
2019-03-17T20:21:18.886Z,4.57
2019-03-17T20:26:23.154Z,4.40
2019-03-17T20:31:30.227Z,4.53
2019-03-17T20:36:34.345Z,4.55
2019-03-17T20:41:39.043Z,4.50
2019-03-17T20:46:43.191Z,4.41
2019-03-17T20:51:47.329Z,4.30
2019-03-17T20:56:51.456Z,4.35
2019-03-17T21:01:56.885Z,4.31
2019-03-17T21:07:00.997Z,4.26
2019-03-17T21:12:06.364Z,4.17
2019-03-17T21:17:10.664Z,4.21
2019-03-17T21:22:14.748Z,4.13
2019-03-17T21:27:18.945Z,4.10
2019-03-17T21:32:23.299Z,4.01
2019-03-17T21:37:27.303Z,3.84
2019-03-17T21:42:31.535Z,3.81
2019-03-17T21:47:36.258Z,3.92
2019-03-17T21:52:40.338Z,3.92
2019-03-17T21:57:44.402Z,3.72
2019-03-17T22:02:48.944Z,3.63
2019-03-17T22:07:53.008Z,3.49
2019-03-17T22:12:57.470Z,3.47
2019-03-17T22:18:01.627Z,3.47
2019-03-17T22:23:05.957Z,3.65
2019-03-17T22:28:09.992Z,3.70
2019-03-17T22:33:14.049Z,3.45
2019-03-17T22:38:18.084Z,3.50
2019-03-17T22:43:22.113Z,3.62
2019-03-17T22:48:26.169Z,3.46
2019-03-17T22:53:31.295Z,3.33
2019-03-17T22:58:35.638Z,3.29
2019-03-17T23:03:39.700Z,3.35
2019-03-17T23:08:43.831Z,3.24
2019-03-17T23:13:47.914Z,3.18
2019-03-17T23:18:51.984Z,3.20
2019-03-17T23:23:56.009Z,3.05
2019-03-17T23:29:00.068Z,3.02
2019-03-17T23:34:04.118Z,2.88
2019-03-17T23:39:08.251Z,2.79
2019-03-17T23:44:12.542Z,2.79
2019-03-17T23:49:16.573Z,2.67
2019-03-17T23:54:20.714Z,2.43
2019-03-17T23:59:24.824Z,2.44
